KELO

Ely Municipal Airport

Ely, Minnesota, USA
METAR KELO 280055Z AUTO 00000KT 10SM CLR 26/13 A2985 RMK AO2
Observed Flight Rules
May-28 @ 00:55 UTC (9 minutes ago) Visual Flight Rules
Visibility Clouds
10 miles
  • Clear skies
Temperatures Readings
Current 26°C / 79°F
Dewpoint 13°C / 55°F
Humidity 45%
Altimeter 29.85" Hg
Pressure 1011 hPa
Elevation 443
METAR KELO 280055Z AUTO 00000KT 10SM CLR 26/13 A2985 RMK AO2
Observed Flight Rules
May-28 @ 00:55 UTC
(9 minutes ago)
VFR
Clouds
  • Clear skies
Temperature Dewpoint
26°C / 79°F 13°C / 55°F
Humidity Altimeter Pressure
45% 29.85" Hg 1011 hPa